Time;durP1;ratioP1;P1;durP2;ratioP2;P2;SDS_P1;SDS_P2;PMS_P1;PMS_P2;Temp;Humidity;BMP_temperature;BMP_pressure;BME280_temperature;BME280_humidity;BME280_pressure;Samples;Min_cycle;Max_cycle;Signal;HPM_P1;HPM_P2
2021/11/13 00:02:15;;;;;;;99.23;53.20;;;;;;;3.29;73.82;101391.10;126328;1099;104296;-82
2021/11/13 00:04:47;;;;;;;102.17;53.40;;;;;;;3.33;73.57;101392.23;126315;1099;104181;-81
2021/11/13 00:07:20;;;;;;;88.70;47.00;;;;;;;3.34;73.23;101391.47;126320;1099;104188;-82
2021/11/13 00:09:51;;;;;;;93.13;50.30;;;;;;;3.33;73.77;101392.23;126303;1099;104205;-83
2021/11/13 00:12:22;;;;;;;96.03;50.77;;;;;;;3.35;73.56;101391.59;126347;1099;104188;-82
2021/11/13 00:14:53;;;;;;;95.93;53.00;;;;;;;3.40;73.73;101392.84;126372;1099;104309;-82
2021/11/13 00:17:25;;;;;;;98.03;55.43;;;;;;;3.46;73.44;101391.51;126311;1099;104444;-82
2021/11/13 00:19:56;;;;;;;93.37;52.57;;;;;;;3.46;73.25;101389.84;126334;1099;104137;-82
2021/11/13 00:22:29;;;;;;;96.17;52.07;;;;;;;3.41;73.83;101386.88;126337;1099;104198;-82
2021/11/13 00:25:00;;;;;;;88.73;48.67;;;;;;;3.36;73.85;101392.48;126361;1099;104191;-82
2021/11/13 00:27:33;;;;;;;93.13;50.10;;;;;;;3.30;74.39;101397.19;125433;1099;104325;-82
2021/11/13 00:30:07;;;;;;;92.17;48.57;;;;;;;3.23;73.70;101400.99;126281;1099;104283;-82
2021/11/13 00:32:40;;;;;;;88.70;47.87;;;;;;;3.19;73.98;101402.41;126354;1099;104746;-82
2021/11/13 00:35:13;;;;;;;94.50;49.87;;;;;;;3.14;74.00;101390.78;126303;1099;104252;-82
2021/11/13 00:37:45;;;;;;;99.20;51.20;;;;;;;3.15;73.80;101390.01;126396;1099;104216;-81
2021/11/13 00:40:22;;;;;;;94.77;51.50;;;;;;;3.15;74.07;101394.30;126299;1099;104376;-81
2021/11/13 00:42:55;;;;;;;97.10;51.70;;;;;;;3.12;73.90;101394.95;126296;1099;104290;-82
2021/11/13 00:45:30;;;;;;;100.38;53.80;;;;;;;3.12;74.17;101399.23;126315;1099;104255;-82
2021/11/13 00:48:03;;;;;;;97.10;53.37;;;;;;;3.09;73.86;101401.59;125477;1099;104152;-81
2021/11/13 00:50:34;;;;;;;97.50;51.93;;;;;;;3.00;74.08;101402.64;126310;1099;104149;-81
2021/11/13 00:53:05;;;;;;;88.20;48.60;;;;;;;2.96;73.99;101399.67;125391;1099;104207;-82
2021/11/13 00:55:37;;;;;;;94.83;50.93;;;;;;;2.91;73.52;101396.70;126308;1099;104153;-83
2021/11/13 00:58:09;;;;;;;89.90;49.27;;;;;;;2.90;73.74;101401.77;126363;1097;104197;-82
2021/11/13 01:00:44;;;;;;;91.80;50.13;;;;;;;2.88;74.06;101397.39;126249;1099;104175;-82
2021/11/13 01:03:18;;;;;;;94.53;49.27;;;;;;;2.87;73.96;101392.08;126352;1099;104201;-82
2021/11/13 01:05:49;;;;;;;96.60;48.70;;;;;;;2.89;74.38;101395.69;126322;1099;104306;-81
2021/11/13 01:08:22;;;;;;;92.35;49.90;;;;;;;2.94;74.32;101396.95;126300;1099;104284;-80
2021/11/13 01:10:55;;;;;;;102.10;52.70;;;;;;;3.05;74.35;101393.56;126260;1098;104615;-81
2021/11/13 01:13:27;;;;;;;98.90;53.23;;;;;;;3.09;74.15;101397.30;126329;1099;104190;-82
2021/11/13 01:15:58;;;;;;;94.57;52.77;;;;;;;3.12;74.21;101400.13;126355;1099;104226;-82
2021/11/13 01:18:29;;;;;;;94.77;51.93;;;;;;;3.03;73.85;101391.61;125377;1099;104271;-82
2021/11/13 01:21:00;;;;;;;94.67;52.50;;;;;;;2.95;74.13;101397.88;126268;1099;104271;-83
2021/11/13 01:23:31;;;;;;;95.70;50.87;;;;;;;2.87;74.23;101385.20;126359;1099;104175;-83
2021/11/13 01:26:05;;;;;;;95.77;51.53;;;;;;;2.81;74.05;101386.40;126302;1099;104254;-83
2021/11/13 01:28:36;;;;;;;90.27;48.53;;;;;;;2.75;74.00;101380.72;126337;1099;104248;-82
2021/11/13 01:31:10;;;;;;;90.37;46.77;;;;;;;2.69;74.16;101383.70;126311;1099;104184;-82
2021/11/13 01:33:40;;;;;;;92.80;49.30;;;;;;;2.67;74.08;101377.50;125322;1099;104140;-83
2021/11/13 01:36:13;;;;;;;91.30;49.97;;;;;;;2.65;74.23;101384.22;126357;1099;104226;-82
2021/11/13 01:38:46;;;;;;;92.50;49.40;;;;;;;2.65;74.03;101377.38;126329;1099;104163;-83
2021/11/13 01:41:18;;;;;;;97.40;49.60;;;;;;;2.66;74.02;101379.16;126317;1099;104211;-83
2021/11/13 01:43:50;;;;;;;99.10;49.38;;;;;;;2.63;74.71;101378.02;126343;1099;104146;-82
2021/11/13 01:46:23;;;;;;;92.80;51.47;;;;;;;2.58;73.91;101384.52;126305;1099;104357;-82
2021/11/13 01:48:55;;;;;;;91.05;48.25;;;;;;;2.53;73.97;101378.07;126332;1099;104191;-81
2021/11/13 01:51:28;;;;;;;96.17;51.03;;;;;;;2.50;74.89;101386.48;126323;1099;104204;-83
2021/11/13 01:54:04;;;;;;;91.13;48.10;;;;;;;2.46;74.81;101390.52;126355;1099;104178;-82
2021/11/13 01:56:37;;;;;;;91.03;50.07;;;;;;;2.43;74.27;101394.52;126333;1099;104159;-82
2021/11/13 01:59:09;;;;;;;90.00;48.47;;;;;;;2.43;74.45;101392.86;125307;1099;104171;-82
2021/11/13 02:01:41;;;;;;;90.40;47.67;;;;;;;2.41;74.72;101384.03;126293;1099;105001;-82
2021/11/13 02:04:11;;;;;;;87.80;48.67;;;;;;;2.39;74.62;101384.70;126380;1099;104195;-83
2021/11/13 02:06:42;;;;;;;94.20;50.13;;;;;;;2.41;74.85;101390.91;126344;1099;104189;-83
2021/11/13 02:09:13;;;;;;;93.90;50.87;;;;;;;2.40;74.59;101394.27;126349;1099;104287;-82
2021/11/13 02:11:43;;;;;;;87.53;49.53;;;;;;;2.35;74.75;101386.11;126022;1099;104172;-82
2021/11/13 02:14:14;;;;;;;93.35;49.60;;;;;;;2.34;74.72;101376.55;126366;1098;104140;-83
2021/11/13 02:16:45;;;;;;;88.47;49.40;;;;;;;2.38;74.78;101381.19;126328;1099;104156;-82
2021/11/13 02:19:16;;;;;;;88.97;48.40;;;;;;;2.38;74.91;101383.77;126365;1099;104150;-82
2021/11/13 02:21:48;;;;;;;88.03;46.53;;;;;;;2.38;74.82;101381.19;126307;1099;104223;-82
2021/11/13 02:24:19;;;;;;;93.57;47.93;;;;;;;2.37;75.43;101388.83;126315;1099;104383;-82
2021/11/13 02:26:53;;;;;;;88.40;48.57;;;;;;;2.35;74.99;101386.11;126358;1099;104188;-82
2021/11/13 02:29:25;;;;;;;94.85;50.50;;;;;;;2.37;74.97;101386.23;126257;1099;104235;-82
2021/11/13 02:31:56;;;;;;;91.30;50.70;;;;;;;2.41;75.22;101385.73;126326;1099;104178;-81
2021/11/13 02:34:27;;;;;;;92.70;49.65;;;;;;;2.41;74.84;101381.44;126349;1099;104163;-82
2021/11/13 02:36:58;;;;;;;88.93;47.43;;;;;;;2.41;74.61;101386.63;126335;1099;104157;-83
2021/11/13 02:39:29;;;;;;;88.80;48.80;;;;;;;2.33;74.83;101382.50;126337;1099;104178;-82
2021/11/13 02:42:00;;;;;;;90.07;47.77;;;;;;;2.21;74.40;101391.84;126306;1099;104922;-82
2021/11/13 02:44:32;;;;;;;89.33;48.00;;;;;;;2.11;74.64;101379.81;126291;1099;104326;-81
2021/11/13 02:47:04;;;;;;;91.47;48.40;;;;;;;2.06;75.50;101378.53;126316;1099;104211;-81
2021/11/13 02:49:35;;;;;;;86.17;46.67;;;;;;;2.01;75.04;101382.40;126299;1099;104217;-81
2021/11/13 02:52:09;;;;;;;85.22;45.98;;;;;;;1.96;75.22;101388.12;126201;1099;104781;-82
2021/11/13 02:54:45;;;;;;;90.57;46.73;;;;;;;1.93;75.36;101389.52;126313;1099;104185;-82
2021/11/13 02:57:17;;;;;;;86.37;44.37;;;;;;;1.90;75.52;101389.26;126339;1099;104146;-81
2021/11/13 02:59:50;;;;;;;89.20;45.90;;;;;;;1.88;75.37;101386.54;126320;1099;104294;-81
2021/11/13 03:02:21;;;;;;;91.67;46.63;;;;;;;1.94;75.06;101386.16;126290;1099;104191;-81
2021/11/13 03:04:52;;;;;;;85.73;44.27;;;;;;;1.97;75.05;101391.59;126357;1099;104628;-81
2021/11/13 03:07:23;;;;;;;88.27;46.37;;;;;;;1.97;75.48;101392.49;126342;1099;104239;-81
2021/11/13 03:09:54;;;;;;;87.57;50.13;;;;;;;2.04;75.55;101395.60;126388;1099;104245;-81
2021/11/13 03:12:24;;;;;;;91.37;48.53;;;;;;;2.05;75.39;101397.42;126265;1099;104213;-81
2021/11/13 03:14:55;;;;;;;97.53;48.70;;;;;;;2.00;75.28;101398.73;126296;1099;104194;-81
2021/11/13 03:17:26;;;;;;;93.27;46.13;;;;;;;1.90;75.18;101400.54;126309;1099;104165;-82
2021/11/13 03:19:57;;;;;;;88.03;46.77;;;;;;;1.83;75.32;101411.14;125343;1099;104149;-82
2021/11/13 03:22:28;;;;;;;90.13;48.70;;;;;;;1.83;75.58;101407.66;125432;1099;104252;-82
2021/11/13 03:24:59;;;;;;;86.95;46.50;;;;;;;1.80;75.08;101419.53;125378;1099;117923;-81
2021/11/13 03:27:30;;;;;;;89.03;45.03;;;;;;;1.82;75.69;101409.31;126328;1099;104251;-81
2021/11/13 03:30:02;;;;;;;88.03;45.43;;;;;;;1.78;75.15;101410.74;126348;1098;104187;-81
2021/11/13 03:32:34;;;;;;;87.67;45.77;;;;;;;1.76;75.52;101412.30;126320;1098;104153;-82
2021/11/13 03:35:05;;;;;;;89.90;45.63;;;;;;;1.77;75.13;101408.02;126286;1099;104185;-82
2021/11/13 03:37:37;;;;;;;83.33;43.27;;;;;;;1.77;75.15;101413.20;126311;1099;104223;-81
2021/11/13 03:40:12;;;;;;;88.67;45.07;;;;;;;1.71;75.10;101416.16;126332;1099;104242;-81
2021/11/13 03:42:47;;;;;;;88.27;45.23;;;;;;;1.70;75.46;101414.36;126321;1099;104143;-81
2021/11/13 03:45:19;;;;;;;95.03;47.87;;;;;;;1.65;75.32;101410.45;126280;1099;110698;-81
2021/11/13 03:47:50;;;;;;;95.63;50.60;;;;;;;1.58;75.78;101411.62;126367;1099;104152;-82
2021/11/13 03:50:21;;;;;;;89.13;47.40;;;;;;;1.57;74.90;101412.41;125407;1099;104181;-82
2021/11/13 03:52:52;;;;;;;92.03;47.63;;;;;;;1.57;75.55;101408.90;126337;1099;104243;-81
2021/11/13 03:55:26;;;;;;;87.77;46.50;;;;;;;1.61;75.37;101408.40;126279;1099;104140;-81
2021/11/13 03:57:58;;;;;;;87.07;46.73;;;;;;;1.63;75.09;101412.02;126395;1099;104271;-81
2021/11/13 04:00:30;;;;;;;86.17;44.90;;;;;;;1.63;75.33;101414.60;126383;1099;104201;-82
2021/11/13 04:03:01;;;;;;;81.97;43.23;;;;;;;1.66;74.95;101420.05;125441;1099;104168;-81
2021/11/13 04:05:32;;;;;;;85.97;42.83;;;;;;;1.64;75.11;101421.60;126264;1099;104149;-81
2021/11/13 04:08:06;;;;;;;81.47;45.30;;;;;;;1.62;75.45;101423.13;126328;1099;104175;-82
2021/11/13 04:10:37;;;;;;;78.80;43.33;;;;;;;1.64;75.27;101424.19;126348;1099;104152;-81
2021/11/13 04:13:10;;;;;;;83.17;45.37;;;;;;;1.67;75.19;101429.63;126324;1099;104221;-82
2021/11/13 04:15:41;;;;;;;89.77;46.67;;;;;;;1.69;75.44;101435.83;126323;1099;104651;-81
2021/11/13 04:18:12;;;;;;;81.90;43.87;;;;;;;1.76;75.90;101439.84;126316;1099;104264;-81
2021/11/13 04:20:43;;;;;;;91.60;48.27;;;;;;;1.76;75.47;101432.08;126287;1099;104281;-81
2021/11/13 04:23:14;;;;;;;88.27;45.97;;;;;;;1.73;75.62;101424.98;126355;1099;104146;-81
2021/11/13 04:25:44;;;;;;;84.03;43.83;;;;;;;1.67;75.40;101437.39;126323;1099;104189;-82
2021/11/13 04:28:15;;;;;;;80.27;44.17;;;;;;;1.60;75.92;101437.63;126347;1098;104255;-81
2021/11/13 04:30:46;;;;;;;81.33;44.57;;;;;;;1.57;75.95;101439.94;126325;1099;104158;-82
2021/11/13 04:33:17;;;;;;;80.30;42.30;;;;;;;1.53;75.70;101436.19;126323;1099;104184;-82
2021/11/13 04:36:00;;;;;;;80.33;41.90;;;;;;;1.51;75.76;101435.16;126288;1098;104234;-82
2021/11/13 04:38:32;;;;;;;82.27;43.60;;;;;;;1.54;75.79;101435.43;126373;1099;104143;-82
2021/11/13 04:41:05;;;;;;;83.17;45.03;;;;;;;1.58;75.26;101423.66;126357;1099;104689;-82
2021/11/13 04:43:37;;;;;;;84.63;45.70;;;;;;;1.65;75.76;101422.50;126346;1099;104162;-81
2021/11/13 04:46:07;;;;;;;85.87;47.07;;;;;;;1.69;75.99;101425.48;125548;1099;104158;-81
2021/11/13 04:48:38;;;;;;;82.37;45.27;;;;;;;1.70;75.45;101429.89;126300;1099;104172;-82
2021/11/13 04:51:09;;;;;;;84.03;46.13;;;;;;;1.72;75.74;101435.20;126385;1099;104153;-82
2021/11/13 04:53:39;;;;;;;83.90;45.63;;;;;;;1.74;75.59;101431.05;126345;1099;104162;-82
2021/11/13 04:56:10;;;;;;;79.40;45.03;;;;;;;1.77;75.56;101434.80;126292;1099;104246;-81
2021/11/13 04:58:42;;;;;;;81.87;43.60;;;;;;;1.83;75.48;101433.53;125311;1102;104309;-82
2021/11/13 05:01:12;;;;;;;80.70;42.75;;;;;;;1.88;76.16;101445.17;125296;1102;104259;-82
2021/11/13 05:03:43;;;;;;;77.93;43.90;;;;;;;1.84;75.69;101450.85;125316;1100;104329;-82
2021/11/13 05:06:15;;;;;;;77.63;42.57;;;;;;;1.75;75.85;101456.16;125322;1102;104159;-82
2021/11/13 05:08:48;;;;;;;83.13;44.30;;;;;;;1.65;75.41;101453.55;125286;1102;104162;-82
2021/11/13 05:11:20;;;;;;;78.97;43.10;;;;;;;1.52;75.31;101455.06;125245;1102;105303;-82
2021/11/13 05:13:54;;;;;;;85.37;43.63;;;;;;;1.43;75.36;101462.95;125299;1102;104159;-81
2021/11/13 05:16:26;;;;;;;92.33;46.03;;;;;;;1.36;75.50;101455.41;125273;1101;104153;-82
2021/11/13 05:18:58;;;;;;;93.10;46.07;;;;;;;1.35;76.02;101460.45;125352;1101;104322;-81
2021/11/13 05:21:31;;;;;;;87.77;46.43;;;;;;;1.39;75.24;101460.85;125252;1102;104331;-82
2021/11/13 05:24:03;;;;;;;94.80;46.80;;;;;;;1.44;75.99;101469.02;125319;1101;104300;-82
2021/11/13 05:26:34;;;;;;;90.43;47.37;;;;;;;1.48;75.74;101467.59;125269;1102;104688;-82
2021/11/13 05:29:05;;;;;;;85.40;45.60;;;;;;;1.57;75.86;101478.75;125350;1102;104191;-82
2021/11/13 05:31:35;;;;;;;83.77;45.37;;;;;;;1.63;75.71;101473.21;126152;1099;104728;-82
2021/11/13 05:34:06;;;;;;;83.77;45.87;;;;;;;1.66;76.30;101476.96;126344;1099;104178;-81
2021/11/13 05:36:37;;;;;;;85.40;46.37;;;;;;;1.69;76.12;101466.88;126297;1099;104230;-80
2021/11/13 05:39:08;;;;;;;89.55;47.55;;;;;;;1.71;75.67;101473.08;126331;1099;104319;-81
2021/11/13 05:41:39;;;;;;;91.07;46.33;;;;;;;1.72;75.62;101476.59;126361;1099;104156;-83
2021/11/13 05:44:10;;;;;;;85.23;45.50;;;;;;;1.75;75.48;101477.77;126317;1099;104147;-81
2021/11/13 05:46:43;;;;;;;84.60;45.92;;;;;;;1.78;75.71;101485.80;126296;1099;104185;-82
2021/11/13 05:49:14;;;;;;;85.33;43.47;;;;;;;1.77;75.66;101491.73;126369;1099;104256;-81
2021/11/13 05:51:47;;;;;;;86.20;44.33;;;;;;;1.78;75.95;101493.55;126331;1099;104140;-81
2021/11/13 05:54:18;;;;;;;79.87;44.03;;;;;;;1.88;76.34;101494.36;125429;1099;104249;-80
2021/11/13 05:56:49;;;;;;;79.13;45.67;;;;;;;1.97;76.29;101497.73;126246;1099;104379;-81
2021/11/13 05:59:21;;;;;;;80.73;45.33;;;;;;;2.07;76.16;101496.83;126297;1099;104325;-81
2021/11/13 06:01:52;;;;;;;84.03;47.10;;;;;;;2.15;75.73;101499.31;126323;1099;104364;-81
2021/11/13 06:04:23;;;;;;;77.90;45.70;;;;;;;2.25;75.95;101503.59;126228;1099;104255;-82
2021/11/13 06:06:54;;;;;;;81.25;46.95;;;;;;;2.30;76.26;101507.47;126306;1098;104233;-82
2021/11/13 06:09:25;;;;;;;82.23;46.37;;;;;;;2.32;75.92;101510.19;126354;1099;104179;-81
2021/11/13 06:11:56;;;;;;;81.10;46.10;;;;;;;2.33;75.83;101509.42;126317;1099;104268;-81
2021/11/13 06:14:28;;;;;;;79.60;46.23;;;;;;;2.38;76.06;101507.22;126331;1099;104149;-81
2021/11/13 06:17:01;;;;;;;80.10;46.37;;;;;;;2.41;75.92;101510.07;126302;1099;104249;-82
2021/11/13 06:19:31;;;;;;;80.23;44.43;;;;;;;2.45;75.89;101513.05;126349;1099;104204;-82
2021/11/13 06:22:08;;;;;;;82.10;47.03;;;;;;;2.49;76.39;101501.25;126354;1099;104158;-81
2021/11/13 06:24:40;;;;;;;84.33;47.00;;;;;;;2.55;76.15;101509.53;125353;1099;104178;-83
2021/11/13 06:27:16;;;;;;;90.20;49.80;;;;;;;2.63;75.63;101503.34;126286;1099;104184;-83
2021/11/13 06:29:47;;;;;;;93.60;52.30;;;;;;;2.69;76.02;101508.10;126323;1099;104192;-81
2021/11/13 06:32:19;;;;;;;89.13;50.63;;;;;;;2.76;75.89;101517.28;126344;1099;104147;-80
2021/11/13 06:34:56;;;;;;;90.23;50.77;;;;;;;2.78;75.23;101514.05;126277;1099;104258;-82
2021/11/13 06:37:29;;;;;;;90.90;49.20;;;;;;;2.79;75.85;101510.70;126291;1099;101751;-82
2021/11/13 06:40:00;;;;;;;97.43;48.97;;;;;;;2.85;75.61;101508.61;126325;1099;104158;-82
2021/11/13 06:42:31;;;;;;;87.20;48.90;;;;;;;2.93;76.02;101508.31;126357;1099;104784;-81
2021/11/13 06:45:02;;;;;;;89.23;48.17;;;;;;;3.06;75.88;101505.97;126331;1099;104733;-82
2021/11/13 06:47:33;;;;;;;84.37;46.77;;;;;;;3.19;76.58;101506.16;126252;1099;104319;-81
2021/11/13 06:50:12;;;;;;;88.57;49.73;;;;;;;3.30;75.90;101500.95;126209;1099;104330;-81
2021/11/13 06:52:49;;;;;;;94.57;52.07;;;;;;;3.40;76.08;101503.52;126325;1098;104258;-81
2021/11/13 06:55:24;;;;;;;91.93;51.70;;;;;;;3.51;75.96;101497.49;126313;1099;104153;-82
2021/11/13 06:57:59;;;;;;;91.83;53.13;;;;;;;3.55;75.81;101506.42;126289;1099;104284;-82
2021/11/13 07:00:34;;;;;;;86.53;50.20;;;;;;;3.55;75.57;101499.56;126292;1098;104277;-82
2021/11/13 07:03:09;;;;;;;90.13;48.33;;;;;;;3.54;75.81;101500.33;126296;1099;102977;-82
2021/11/13 07:05:44;;;;;;;84.10;47.30;;;;;;;3.57;75.70;101499.69;126270;1099;104223;-82
2021/11/13 07:08:17;;;;;;;86.17;47.63;;;;;;;3.61;75.74;101491.34;126326;1099;104178;-82
2021/11/13 07:10:55;;;;;;;89.00;47.10;;;;;;;3.66;75.30;101492.62;126312;1099;104200;-82
2021/11/13 07:13:28;;;;;;;93.03;51.10;;;;;;;3.79;75.73;101499.69;126317;1099;104278;-82
2021/11/13 07:16:02;;;;;;;90.42;49.60;;;;;;;3.89;76.41;101497.01;126251;1099;104343;-81
2021/11/13 07:18:34;;;;;;;;;;;;;;;3.95;75.12;101500.09;126320;1099;104149;-82
2021/11/13 07:21:09;;;;;;;86.57;47.40;;;;;;;4.03;75.47;101502.39;126327;1099;104325;-82
2021/11/13 07:23:41;;;;;;;89.33;49.67;;;;;;;4.10;75.94;101502.09;126346;1099;104153;-82
2021/11/13 07:26:16;;;;;;;94.40;50.10;;;;;;;4.17;76.31;101499.16;126327;1099;104172;-82
2021/11/13 07:28:51;;;;;;;87.00;46.93;;;;;;;4.25;75.98;101495.45;126264;1099;102833;-83
2021/11/13 07:31:24;;;;;;;90.83;48.77;;;;;;;4.38;76.28;101499.00;126344;1099;104172;-81
2021/11/13 07:33:57;;;;;;;88.70;49.23;;;;;;;4.56;75.93;101497.80;126355;1096;104223;-82
2021/11/13 07:36:32;;;;;;;92.87;52.87;;;;;;;4.74;76.29;101497.41;126380;1099;104210;-83
2021/11/13 07:39:05;;;;;;;101.53;58.27;;;;;;;4.91;75.86;101496.03;126247;1099;104210;-82
2021/11/13 07:41:35;;;;;;;91.30;53.57;;;;;;;5.03;76.09;101499.55;126329;1099;104165;-83
2021/11/13 07:44:06;;;;;;;92.47;52.57;;;;;;;5.11;75.90;101500.11;126310;1099;104197;-82
2021/11/13 07:46:37;;;;;;;90.07;52.10;;;;;;;5.12;75.87;101500.22;126317;1099;104249;-83
2021/11/13 07:49:10;;;;;;;93.67;51.80;;;;;;;5.20;75.81;101495.58;126335;1099;104201;-84
2021/11/13 07:51:41;;;;;;;98.63;49.47;;;;;;;5.31;75.90;101492.05;126280;1099;104175;-83
2021/11/13 07:54:12;;;;;;;89.03;49.93;;;;;;;5.40;75.91;101491.83;126275;1099;104287;-82
2021/11/13 07:56:43;;;;;;;99.73;52.53;;;;;;;5.48;75.67;101488.08;126347;1099;104165;-82
2021/11/13 07:59:15;;;;;;;93.27;51.47;;;;;;;5.59;75.87;101488.84;126304;1099;104133;-83
2021/11/13 08:01:46;;;;;;;95.93;53.00;;;;;;;5.70;75.24;101481.80;126377;1099;104188;-83
2021/11/13 08:04:19;;;;;;;96.97;54.37;;;;;;;5.85;75.63;101489.80;126347;1099;104309;-83
2021/11/13 08:06:50;;;;;;;98.73;52.93;;;;;;;5.93;75.38;101493.84;126364;1099;104805;-84
2021/11/13 08:09:23;;;;;;;92.67;54.23;;;;;;;6.04;75.34;101494.63;126282;1099;104181;-82
2021/11/13 08:11:53;;;;;;;89.20;50.57;;;;;;;6.15;75.36;101491.06;126354;1099;104139;-82
2021/11/13 08:14:26;;;;;;;80.67;46.23;;;;;;;6.26;74.99;101481.37;126355;1099;104184;-82
2021/11/13 08:17:00;;;;;;;78.43;44.33;;;;;;;6.40;75.21;101487.54;126309;1098;104229;-82
2021/11/13 08:19:31;;;;;;;77.60;43.65;;;;;;;6.54;75.13;101488.48;126238;1099;104198;-81
2021/11/13 08:22:02;;;;;;;75.67;44.47;;;;;;;6.65;75.14;101490.10;126266;1099;104188;-83
2021/11/13 08:24:35;;;;;;;82.23;45.90;;;;;;;6.76;74.81;101488.22;126347;1099;104229;-81
2021/11/13 08:27:07;;;;;;;85.40;48.33;;;;;;;6.89;74.56;101497.75;126306;1099;101822;-81
2021/11/13 08:29:38;;;;;;;79.77;48.37;;;;;;;7.00;75.13;101486.34;126289;1099;104140;-82
2021/11/13 08:32:11;;;;;;;89.07;50.87;;;;;;;7.06;74.48;101491.04;126317;1098;104207;-82
2021/11/13 08:34:44;;;;;;;78.23;45.00;;;;;;;7.11;74.30;101482.72;126316;1099;104165;-81
2021/11/13 08:37:15;;;;;;;79.43;44.20;;;;;;;7.21;74.30;101486.83;126341;1099;104217;-82
2021/11/13 08:39:46;;;;;;;81.80;45.63;;;;;;;7.26;74.03;101481.91;126304;1097;104192;-82
2021/11/13 08:42:18;;;;;;;80.67;45.57;;;;;;;7.30;73.37;101486.53;126349;1099;104172;-82
2021/11/13 08:44:53;;;;;;;82.87;47.73;;;;;;;7.36;73.72;101492.15;126288;1099;104207;-82
2021/11/13 08:47:24;;;;;;;84.77;49.33;;;;;;;7.38;73.21;101496.64;126356;1099;104210;-83
2021/11/13 08:49:56;;;;;;;86.03;49.70;;;;;;;7.44;73.72;101495.26;126316;1099;104242;-82
2021/11/13 08:52:32;;;;;;;84.50;49.17;;;;;;;7.52;74.16;101489.70;126352;1098;104252;-82
2021/11/13 08:55:04;;;;;;;84.97;48.00;;;;;;;7.63;73.87;101481.66;126375;1098;104165;-82
2021/11/13 08:57:37;;;;;;;80.12;47.30;;;;;;;7.76;73.78;101472.88;126319;1099;104162;-81
2021/11/13 09:00:09;;;;;;;78.90;45.70;;;;;;;7.84;73.50;101482.11;126312;1099;105586;-81
2021/11/13 09:02:40;;;;;;;80.97;46.63;;;;;;;7.89;73.54;101480.68;126282;1099;104140;-82
2021/11/13 09:05:11;;;;;;;79.20;46.00;;;;;;;7.96;73.29;101479.34;126341;1099;104256;-82
2021/11/13 09:07:42;;;;;;;77.43;45.03;;;;;;;8.00;72.43;101478.73;126274;1098;104266;-82
2021/11/13 09:10:14;;;;;;;73.80;40.97;;;;;;;7.99;72.89;101477.80;126265;1099;104146;-82
2021/11/13 09:12:45;;;;;;;71.40;41.57;;;;;;;8.06;73.53;101473.88;126233;1098;104117;-83
2021/11/13 09:15:25;;;;;;;68.10;40.00;;;;;;;8.17;73.19;101478.05;126335;1098;104137;-82
2021/11/13 09:17:57;;;;;;;74.53;41.13;;;;;;;8.29;73.08;101472.67;126323;1099;104188;-81
2021/11/13 09:20:28;;;;;;;70.67;41.20;;;;;;;8.38;73.17;101480.16;126274;1099;104139;-81
2021/11/13 09:23:01;;;;;;;68.20;40.00;;;;;;;8.42;72.88;101477.81;126323;1099;104264;-82
2021/11/13 09:25:32;;;;;;;65.20;38.47;;;;;;;8.46;72.73;101478.92;126365;1099;104149;-82
2021/11/13 09:28:03;;;;;;;66.93;39.93;;;;;;;8.49;72.45;101478.22;126332;1099;104194;-81
2021/11/13 09:30:37;;;;;;;66.50;39.57;;;;;;;8.47;71.70;101467.66;126309;1099;104239;-81
2021/11/13 09:33:13;;;;;;;65.10;38.17;;;;;;;8.44;71.93;101465.75;126354;1099;104143;-80
2021/11/13 09:35:45;;;;;;;70.90;38.40;;;;;;;8.49;72.22;101465.13;126324;1099;104246;-82
2021/11/13 09:38:16;;;;;;;65.27;37.13;;;;;;;8.55;72.01;101461.16;126353;1099;104302;-81
2021/11/13 09:40:46;;;;;;;74.30;41.43;;;;;;;8.66;71.99;101459.18;126294;1099;104249;-81
2021/11/13 09:43:17;;;;;;;68.23;38.27;;;;;;;8.76;71.77;101458.03;126299;1099;104146;-81
2021/11/13 09:45:48;;;;;;;67.17;38.00;;;;;;;8.87;71.83;101462.16;126282;1099;104885;-82
2021/11/13 09:48:20;;;;;;;66.53;39.13;;;;;;;8.92;71.38;101462.42;126349;1099;104255;-82
2021/11/13 09:50:52;;;;;;;70.60;41.27;;;;;;;8.98;71.57;101457.55;126312;1099;104137;-81
2021/11/13 09:53:25;;;;;;;73.53;41.73;;;;;;;9.04;72.03;101457.90;126351;1099;104165;-82
2021/11/13 09:55:58;;;;;;;67.17;38.90;;;;;;;9.11;71.33;101456.52;126323;1098;104150;-82
2021/11/13 09:58:30;;;;;;;66.30;39.50;;;;;;;9.11;70.69;101451.28;126324;1099;104389;-81
2021/11/13 10:01:03;;;;;;;65.90;38.63;;;;;;;9.18;71.27;101451.72;126269;1099;104188;-82
2021/11/13 10:03:35;;;;;;;63.83;36.83;;;;;;;9.27;71.78;101443.49;126363;1099;104566;-82
2021/11/13 10:06:12;;;;;;;66.63;37.60;;;;;;;9.36;71.46;101445.70;126354;1099;104288;-82
2021/11/13 10:08:49;;;;;;;65.23;38.97;;;;;;;9.43;71.43;101437.37;126371;1099;104258;-81
2021/11/13 10:11:23;;;;;;;60.80;36.10;;;;;;;9.54;71.64;101440.59;126334;1099;104184;-81
2021/11/13 10:13:57;;;;;;;66.47;36.77;;;;;;;9.61;71.08;101437.47;126314;1099;104395;-80
2021/11/13 10:16:34;;;;;;;63.10;35.97;;;;;;;9.64;71.29;101442.88;126351;1099;104178;-81
2021/11/13 10:19:09;;;;;;;63.20;36.77;;;;;;;9.68;70.40;101441.34;126330;1099;104149;-81
2021/11/13 10:21:42;;;;;;;64.27;36.77;;;;;;;9.74;70.60;101432.89;126259;1099;105504;-81
2021/11/13 10:24:17;;;;;;;56.75;34.55;;;;;;;9.80;70.83;101422.73;126290;1099;104219;-81
2021/11/13 10:26:52;;;;;;;58.00;33.00;;;;;;;9.83;70.32;101423.83;126310;1099;104159;-81
2021/11/13 10:29:25;;;;;;;56.33;31.97;;;;;;;9.88;70.37;101424.08;126297;1099;104147;-82
2021/11/13 10:31:57;;;;;;;61.77;34.80;;;;;;;9.94;70.34;101418.23;126203;1099;105609;-81
2021/11/13 10:34:31;;;;;;;58.13;33.17;;;;;;;9.97;70.07;101408.83;126303;1099;104277;-81
2021/11/13 10:37:03;;;;;;;;;;;;;;;10.00;69.52;101416.86;125313;1102;104216;-80
2021/11/13 10:39:36;;;;;;;63.20;34.10;;;;;;;10.02;69.92;101415.20;125294;1099;104149;-81
2021/11/13 10:42:11;;;;;;;61.70;34.88;;;;;;;10.01;69.64;101421.27;125264;1100;104155;-81
2021/11/13 10:44:48;;;;;;;57.13;34.50;;;;;;;10.02;69.59;101423.08;125397;1099;104403;-82
2021/11/13 10:47:21;;;;;;;61.97;32.47;;;;;;;10.03;69.18;101416.09;125327;1099;104216;-80
2021/11/13 10:49:53;;;;;;;54.95;31.65;;;;;;;10.06;69.41;101414.53;125300;1099;104296;-82
2021/11/13 10:52:24;;;;;;;55.13;30.30;;;;;;;10.11;69.65;101417.39;125235;1099;102417;-82
2021/11/13 10:54:55;;;;;;;54.87;32.50;;;;;;;10.15;69.17;101413.23;125274;1099;104191;-81
2021/11/13 10:57:29;;;;;;;55.93;32.07;;;;;;;10.16;68.36;101417.63;125323;1099;104229;-82
2021/11/13 11:00:15;;;;;;;56.17;32.67;;;;;;;10.18;69.28;101411.66;125312;1099;104140;-82
2021/11/13 11:03:05;;;;;;;56.83;31.90;;;;;;;10.22;69.16;101408.38;125345;1099;105516;-82
2021/11/13 11:05:48;;;;;;;55.80;31.83;;;;;;;10.28;68.95;101399.02;125330;1099;104294;-81
2021/11/13 11:08:31;;;;;;;51.67;30.10;;;;;;;10.30;69.13;101400.91;125552;1099;104168;-81
2021/11/13 11:11:04;;;;;;;54.97;31.87;;;;;;;10.36;69.37;101392.46;126356;1099;104143;-81
2021/11/13 11:13:48;;;;;;;51.57;30.83;;;;;;;10.38;68.43;101394.35;126314;1098;104181;-81
2021/11/13 11:16:31;;;;;;;50.30;28.90;;;;;;;10.40;68.55;101390.07;126393;1099;104162;-82
2021/11/13 11:19:06;;;;;;;52.13;29.98;;;;;;;10.44;68.97;101385.91;126316;1099;104270;-82
2021/11/13 11:21:55;;;;;;;51.90;28.65;;;;;;;10.48;68.79;101390.45;126322;1099;104169;-81
2021/11/13 11:24:30;;;;;;;50.77;28.03;;;;;;;10.51;68.44;101381.85;126273;1099;111362;-82
2021/11/13 11:27:06;;;;;;;51.65;28.60;;;;;;;10.51;68.59;101393.23;126273;1099;104259;-81